sensor_id;sensor_type;location;lat;lon;timestamp;P1;durP1;ratioP1;P2;durP2;ratioP2
54919;SDS011;63804;53.120;8.764;2024-01-16T00:01:36;6.03;;;2.13;;
54919;SDS011;63804;53.120;8.764;2024-01-16T00:04:08;9.35;;;2.33;;
54919;SDS011;63804;53.120;8.764;2024-01-16T00:06:42;6.32;;;1.90;;
54919;SDS011;63804;53.120;8.764;2024-01-16T00:09:17;5.40;;;1.85;;
54919;SDS011;63804;53.120;8.764;2024-01-16T00:11:47;4.40;;;1.75;;
54919;SDS011;63804;53.120;8.764;2024-01-16T00:14:17;5.10;;;1.67;;
54919;SDS011;63804;53.120;8.764;2024-01-16T00:16:48;5.60;;;1.73;;
54919;SDS011;63804;53.120;8.764;2024-01-16T00:19:19;4.40;;;1.40;;
54919;SDS011;63804;53.120;8.764;2024-01-16T00:21:56;4.20;;;1.00;;
54919;SDS011;63804;53.120;8.764;2024-01-16T00:24:34;3.53;;;0.70;;
54919;SDS011;63804;53.120;8.764;2024-01-16T00:27:04;4.20;;;1.15;;
54919;SDS011;63804;53.120;8.764;2024-01-16T00:29:39;5.82;;;1.60;;
54919;SDS011;63804;53.120;8.764;2024-01-16T00:32:09;6.90;;;2.30;;
54919;SDS011;63804;53.120;8.764;2024-01-16T00:34:40;6.45;;;2.20;;
54919;SDS011;63804;53.120;8.764;2024-01-16T00:37:11;3.33;;;1.30;;
54919;SDS011;63804;53.120;8.764;2024-01-16T00:39:42;2.30;;;0.70;;
54919;SDS011;63804;53.120;8.764;2024-01-16T00:42:13;0.90;;;0.30;;
54919;SDS011;63804;53.120;8.764;2024-01-16T00:44:43;1.60;;;0.40;;
54919;SDS011;63804;53.120;8.764;2024-01-16T00:47:14;2.83;;;0.50;;
54919;SDS011;63804;53.120;8.764;2024-01-16T00:49:44;3.70;;;0.40;;
54919;SDS011;63804;53.120;8.764;2024-01-16T00:52:15;1.25;;;0.40;;
54919;SDS011;63804;53.120;8.764;2024-01-16T00:54:46;3.25;;;0.50;;
54919;SDS011;63804;53.120;8.764;2024-01-16T00:57:35;2.00;;;0.40;;
54919;SDS011;63804;53.120;8.764;2024-01-16T01:00:05;1.70;;;0.30;;
54919;SDS011;63804;53.120;8.764;2024-01-16T01:02:38;1.50;;;0.47;;
54919;SDS011;63804;53.120;8.764;2024-01-16T01:05:08;1.40;;;0.60;;
54919;SDS011;63804;53.120;8.764;2024-01-16T01:07:39;3.38;;;0.90;;
54919;SDS011;63804;53.120;8.764;2024-01-16T01:10:10;4.53;;;1.60;;
54919;SDS011;63804;53.120;8.764;2024-01-16T01:12:41;4.93;;;1.77;;
54919;SDS011;63804;53.120;8.764;2024-01-16T01:15:11;5.22;;;1.55;;
54919;SDS011;63804;53.120;8.764;2024-01-16T01:17:42;3.10;;;1.15;;
54919;SDS011;63804;53.120;8.764;2024-01-16T01:20:13;5.10;;;1.48;;
54919;SDS011;63804;53.120;8.764;2024-01-16T01:22:42;3.30;;;1.27;;
54919;SDS011;63804;53.120;8.764;2024-01-16T01:25:14;5.30;;;2.10;;
54919;SDS011;63804;53.120;8.764;2024-01-16T01:27:43;6.10;;;2.38;;
54919;SDS011;63804;53.120;8.764;2024-01-16T01:30:13;7.25;;;2.03;;
54919;SDS011;63804;53.120;8.764;2024-01-16T01:32:42;6.93;;;1.60;;
54919;SDS011;63804;53.120;8.764;2024-01-16T01:35:14;6.50;;;2.08;;
54919;SDS011;63804;53.120;8.764;2024-01-16T01:37:45;7.88;;;2.33;;
54919;SDS011;63804;53.120;8.764;2024-01-16T01:40:15;7.68;;;1.63;;
54919;SDS011;63804;53.120;8.764;2024-01-16T01:42:45;4.55;;;0.95;;
54919;SDS011;63804;53.120;8.764;2024-01-16T01:45:15;3.35;;;0.60;;
54919;SDS011;63804;53.120;8.764;2024-01-16T01:47:45;4.22;;;0.80;;
54919;SDS011;63804;53.120;8.764;2024-01-16T01:50:16;2.88;;;0.55;;
54919;SDS011;63804;53.120;8.764;2024-01-16T01:52:46;1.70;;;0.43;;
54919;SDS011;63804;53.120;8.764;2024-01-16T01:55:16;4.07;;;0.50;;
54919;SDS011;63804;53.120;8.764;2024-01-16T01:57:45;2.17;;;0.40;;
54919;SDS011;63804;53.120;8.764;2024-01-16T02:00:16;2.70;;;0.40;;
54919;SDS011;63804;53.120;8.764;2024-01-16T02:02:48;6.50;;;0.95;;
54919;SDS011;63804;53.120;8.764;2024-01-16T02:05:18;7.13;;;1.65;;
54919;SDS011;63804;53.120;8.764;2024-01-16T02:07:49;6.55;;;1.88;;
54919;SDS011;63804;53.120;8.764;2024-01-16T02:10:19;7.00;;;2.30;;
54919;SDS011;63804;53.120;8.764;2024-01-16T02:12:50;5.53;;;1.67;;
54919;SDS011;63804;53.120;8.764;2024-01-16T02:15:21;8.02;;;1.95;;
54919;SDS011;63804;53.120;8.764;2024-01-16T02:17:53;4.10;;;1.25;;
54919;SDS011;63804;53.120;8.764;2024-01-16T02:20:24;3.75;;;0.70;;
54919;SDS011;63804;53.120;8.764;2024-01-16T02:22:54;2.53;;;0.63;;
54919;SDS011;63804;53.120;8.764;2024-01-16T02:25:29;3.75;;;0.40;;
54919;SDS011;63804;53.120;8.764;2024-01-16T02:28:01;4.32;;;0.60;;
54919;SDS011;63804;53.120;8.764;2024-01-16T02:30:39;3.28;;;0.68;;
54919;SDS011;63804;53.120;8.764;2024-01-16T02:33:12;3.80;;;0.57;;
54919;SDS011;63804;53.120;8.764;2024-01-16T02:35:42;4.38;;;0.70;;
54919;SDS011;63804;53.120;8.764;2024-01-16T02:38:13;5.38;;;1.25;;
54919;SDS011;63804;53.120;8.764;2024-01-16T02:40:45;8.73;;;2.60;;
54919;SDS011;63804;53.120;8.764;2024-01-16T02:43:15;9.45;;;2.65;;
54919;SDS011;63804;53.120;8.764;2024-01-16T02:45:46;6.40;;;2.08;;
54919;SDS011;63804;53.120;8.764;2024-01-16T02:48:16;6.97;;;1.73;;
54919;SDS011;63804;53.120;8.764;2024-01-16T02:50:46;3.10;;;0.90;;
54919;SDS011;63804;53.120;8.764;2024-01-16T02:53:17;2.55;;;1.05;;
54919;SDS011;63804;53.120;8.764;2024-01-16T02:55:47;4.80;;;0.90;;
54919;SDS011;63804;53.120;8.764;2024-01-16T02:58:18;4.88;;;0.80;;
54919;SDS011;63804;53.120;8.764;2024-01-16T03:00:49;6.15;;;0.95;;
54919;SDS011;63804;53.120;8.764;2024-01-16T03:03:19;3.33;;;0.70;;
54919;SDS011;63804;53.120;8.764;2024-01-16T03:05:50;3.70;;;0.90;;
54919;SDS011;63804;53.120;8.764;2024-01-16T03:08:20;3.28;;;0.70;;
54919;SDS011;63804;53.120;8.764;2024-01-16T03:10:51;6.05;;;1.33;;
54919;SDS011;63804;53.120;8.764;2024-01-16T03:13:22;4.32;;;0.80;;
54919;SDS011;63804;53.120;8.764;2024-01-16T03:15:52;3.72;;;1.70;;
54919;SDS011;63804;53.120;8.764;2024-01-16T03:18:25;6.33;;;1.10;;
54919;SDS011;63804;53.120;8.764;2024-01-16T03:20:56;5.72;;;1.00;;
54919;SDS011;63804;53.120;8.764;2024-01-16T03:23:32;6.15;;;1.25;;
54919;SDS011;63804;53.120;8.764;2024-01-16T03:26:03;7.97;;;1.00;;
54919;SDS011;63804;53.120;8.764;2024-01-16T03:28:35;5.32;;;1.65;;
54919;SDS011;63804;53.120;8.764;2024-01-16T03:31:05;6.00;;;2.03;;
54919;SDS011;63804;53.120;8.764;2024-01-16T03:33:37;11.35;;;3.38;;
54919;SDS011;63804;53.120;8.764;2024-01-16T03:36:13;10.63;;;3.40;;
54919;SDS011;63804;53.120;8.764;2024-01-16T03:38:44;9.43;;;3.33;;
54919;SDS011;63804;53.120;8.764;2024-01-16T03:41:14;8.07;;;1.80;;
54919;SDS011;63804;53.120;8.764;2024-01-16T03:43:44;5.32;;;1.33;;
54919;SDS011;63804;53.120;8.764;2024-01-16T03:46:14;5.28;;;1.02;;
54919;SDS011;63804;53.120;8.764;2024-01-16T03:48:45;4.60;;;1.35;;
54919;SDS011;63804;53.120;8.764;2024-01-16T03:51:15;6.15;;;0.85;;
54919;SDS011;63804;53.120;8.764;2024-01-16T03:53:47;3.20;;;1.00;;
54919;SDS011;63804;53.120;8.764;2024-01-16T03:56:20;3.67;;;0.93;;
54919;SDS011;63804;53.120;8.764;2024-01-16T03:58:52;3.83;;;1.00;;
54919;SDS011;63804;53.120;8.764;2024-01-16T04:01:32;5.13;;;0.90;;
54919;SDS011;63804;53.120;8.764;2024-01-16T04:04:03;6.72;;;1.10;;
54919;SDS011;63804;53.120;8.764;2024-01-16T04:06:37;2.25;;;0.70;;
54919;SDS011;63804;53.120;8.764;2024-01-16T04:09:08;6.03;;;1.15;;
54919;SDS011;63804;53.120;8.764;2024-01-16T04:11:39;3.55;;;0.98;;
54919;SDS011;63804;53.120;8.764;2024-01-16T04:14:09;5.90;;;1.73;;
54919;SDS011;63804;53.120;8.764;2024-01-16T04:16:40;7.10;;;1.20;;
54919;SDS011;63804;53.120;8.764;2024-01-16T04:19:10;4.68;;;0.95;;
54919;SDS011;63804;53.120;8.764;2024-01-16T04:21:40;4.05;;;1.00;;
54919;SDS011;63804;53.120;8.764;2024-01-16T04:24:11;4.10;;;1.10;;
54919;SDS011;63804;53.120;8.764;2024-01-16T04:26:41;6.47;;;1.20;;
54919;SDS011;63804;53.120;8.764;2024-01-16T04:29:12;6.88;;;1.30;;
54919;SDS011;63804;53.120;8.764;2024-01-16T04:31:44;4.13;;;0.80;;
54919;SDS011;63804;53.120;8.764;2024-01-16T04:34:14;5.03;;;0.77;;
54919;SDS011;63804;53.120;8.764;2024-01-16T04:36:44;8.95;;;1.08;;
54919;SDS011;63804;53.120;8.764;2024-01-16T04:39:15;3.60;;;0.95;;
54919;SDS011;63804;53.120;8.764;2024-01-16T04:41:45;6.63;;;1.20;;
54919;SDS011;63804;53.120;8.764;2024-01-16T04:44:15;4.03;;;0.90;;
54919;SDS011;63804;53.120;8.764;2024-01-16T04:46:45;6.53;;;1.20;;
54919;SDS011;63804;53.120;8.764;2024-01-16T04:49:15;4.93;;;1.13;;
54919;SDS011;63804;53.120;8.764;2024-01-16T04:51:46;4.13;;;1.00;;
54919;SDS011;63804;53.120;8.764;2024-01-16T04:54:17;4.13;;;1.00;;
54919;SDS011;63804;53.120;8.764;2024-01-16T04:56:47;5.47;;;0.98;;
54919;SDS011;63804;53.120;8.764;2024-01-16T04:59:16;6.53;;;1.20;;
54919;SDS011;63804;53.120;8.764;2024-01-16T05:01:46;6.38;;;1.00;;
54919;SDS011;63804;53.120;8.764;2024-01-16T05:04:14;7.57;;;1.10;;
54919;SDS011;63804;53.120;8.764;2024-01-16T05:06:43;4.50;;;1.05;;
54919;SDS011;63804;53.120;8.764;2024-01-16T05:09:12;4.78;;;1.10;;
54919;SDS011;63804;53.120;8.764;2024-01-16T05:11:42;7.32;;;1.10;;
54919;SDS011;63804;53.120;8.764;2024-01-16T05:14:10;5.88;;;1.08;;
54919;SDS011;63804;53.120;8.764;2024-01-16T05:16:40;6.63;;;1.15;;
54919;SDS011;63804;53.120;8.764;2024-01-16T05:19:09;6.53;;;1.00;;
54919;SDS011;63804;53.120;8.764;2024-01-16T05:21:40;7.90;;;1.20;;
54919;SDS011;63804;53.120;8.764;2024-01-16T05:24:10;7.53;;;1.15;;
54919;SDS011;63804;53.120;8.764;2024-01-16T05:26:39;5.55;;;1.10;;
54919;SDS011;63804;53.120;8.764;2024-01-16T05:29:09;3.70;;;1.00;;
54919;SDS011;63804;53.120;8.764;2024-01-16T05:31:42;7.00;;;1.15;;
54919;SDS011;63804;53.120;8.764;2024-01-16T05:34:12;9.05;;;1.45;;
54919;SDS011;63804;53.120;8.764;2024-01-16T05:36:42;7.20;;;1.17;;
54919;SDS011;63804;53.120;8.764;2024-01-16T05:40:37;6.88;;;1.27;;
54919;SDS011;63804;53.120;8.764;2024-01-16T05:43:08;6.70;;;1.30;;
54919;SDS011;63804;53.120;8.764;2024-01-16T05:45:38;5.78;;;0.93;;
54919;SDS011;63804;53.120;8.764;2024-01-16T05:48:09;7.70;;;1.10;;
54919;SDS011;63804;53.120;8.764;2024-01-16T05:50:39;8.10;;;1.10;;
54919;SDS011;63804;53.120;8.764;2024-01-16T05:53:09;5.75;;;0.98;;
54919;SDS011;63804;53.120;8.764;2024-01-16T05:55:39;7.25;;;1.10;;
54919;SDS011;63804;53.120;8.764;2024-01-16T05:58:10;8.70;;;1.42;;
54919;SDS011;63804;53.120;8.764;2024-01-16T06:00:44;5.85;;;1.08;;
54919;SDS011;63804;53.120;8.764;2024-01-16T06:03:14;5.68;;;1.40;;
54919;SDS011;63804;53.120;8.764;2024-01-16T06:05:44;5.65;;;1.08;;
54919;SDS011;63804;53.120;8.764;2024-01-16T06:08:15;6.47;;;1.20;;
54919;SDS011;63804;53.120;8.764;2024-01-16T06:10:45;6.80;;;1.02;;
54919;SDS011;63804;53.120;8.764;2024-01-16T06:13:18;6.20;;;1.17;;
54919;SDS011;63804;53.120;8.764;2024-01-16T06:15:48;4.70;;;1.10;;
54919;SDS011;63804;53.120;8.764;2024-01-16T06:18:19;5.78;;;1.55;;
54919;SDS011;63804;53.120;8.764;2024-01-16T06:20:49;6.32;;;1.23;;
54919;SDS011;63804;53.120;8.764;2024-01-16T06:23:20;6.22;;;1.40;;
54919;SDS011;63804;53.120;8.764;2024-01-16T06:25:50;4.70;;;1.17;;
54919;SDS011;63804;53.120;8.764;2024-01-16T06:28:20;5.55;;;1.42;;
54919;SDS011;63804;53.120;8.764;2024-01-16T06:30:50;3.40;;;1.10;;
54919;SDS011;63804;53.120;8.764;2024-01-16T06:33:21;7.85;;;1.20;;
54919;SDS011;63804;53.120;8.764;2024-01-16T06:35:51;6.07;;;1.10;;
54919;SDS011;63804;53.120;8.764;2024-01-16T06:38:24;5.03;;;1.30;;
54919;SDS011;63804;53.120;8.764;2024-01-16T06:40:55;5.68;;;1.13;;
54919;SDS011;63804;53.120;8.764;2024-01-16T06:43:26;4.68;;;0.90;;
54919;SDS011;63804;53.120;8.764;2024-01-16T06:45:56;5.32;;;1.20;;
54919;SDS011;63804;53.120;8.764;2024-01-16T06:48:26;4.70;;;1.25;;
54919;SDS011;63804;53.120;8.764;2024-01-16T06:50:57;6.97;;;1.13;;
54919;SDS011;63804;53.120;8.764;2024-01-16T06:53:30;6.05;;;1.30;;
54919;SDS011;63804;53.120;8.764;2024-01-16T06:56:00;7.03;;;1.55;;
54919;SDS011;63804;53.120;8.764;2024-01-16T06:58:35;7.03;;;1.60;;
54919;SDS011;63804;53.120;8.764;2024-01-16T07:01:05;9.10;;;1.52;;
54919;SDS011;63804;53.120;8.764;2024-01-16T07:03:38;9.38;;;1.42;;
54919;SDS011;63804;53.120;8.764;2024-01-16T07:06:09;9.18;;;1.30;;
54919;SDS011;63804;53.120;8.764;2024-01-16T07:08:40;8.38;;;1.58;;
54919;SDS011;63804;53.120;8.764;2024-01-16T07:11:10;8.00;;;1.58;;
54919;SDS011;63804;53.120;8.764;2024-01-16T07:13:43;9.65;;;1.80;;
54919;SDS011;63804;53.120;8.764;2024-01-16T07:16:14;12.32;;;1.60;;
54919;SDS011;63804;53.120;8.764;2024-01-16T07:18:44;5.10;;;1.17;;
54919;SDS011;63804;53.120;8.764;2024-01-16T07:21:17;7.50;;;1.30;;
54919;SDS011;63804;53.120;8.764;2024-01-16T07:23:48;7.22;;;1.35;;
54919;SDS011;63804;53.120;8.764;2024-01-16T07:26:18;11.52;;;1.60;;
54919;SDS011;63804;53.120;8.764;2024-01-16T07:28:49;7.05;;;1.38;;
54919;SDS011;63804;53.120;8.764;2024-01-16T07:31:20;6.25;;;1.25;;
54919;SDS011;63804;53.120;8.764;2024-01-16T07:33:50;4.53;;;1.30;;
54919;SDS011;63804;53.120;8.764;2024-01-16T07:36:21;5.05;;;1.20;;
54919;SDS011;63804;53.120;8.764;2024-01-16T07:38:51;7.00;;;1.25;;
54919;SDS011;63804;53.120;8.764;2024-01-16T07:41:21;8.75;;;1.40;;
54919;SDS011;63804;53.120;8.764;2024-01-16T07:43:52;7.80;;;1.50;;
54919;SDS011;63804;53.120;8.764;2024-01-16T07:46:22;7.68;;;1.50;;
54919;SDS011;63804;53.120;8.764;2024-01-16T07:48:52;8.30;;;1.33;;
54919;SDS011;63804;53.120;8.764;2024-01-16T07:51:23;3.90;;;1.17;;
54919;SDS011;63804;53.120;8.764;2024-01-16T07:54:03;10.02;;;1.20;;
54919;SDS011;63804;53.120;8.764;2024-01-16T07:56:36;6.75;;;1.40;;
54919;SDS011;63804;53.120;8.764;2024-01-16T07:59:07;5.20;;;1.48;;
54919;SDS011;63804;53.120;8.764;2024-01-16T08:01:37;10.57;;;1.40;;
54919;SDS011;63804;53.120;8.764;2024-01-16T08:04:08;9.02;;;1.52;;
54919;SDS011;63804;53.120;8.764;2024-01-16T08:06:38;7.47;;;1.17;;
54919;SDS011;63804;53.120;8.764;2024-01-16T08:09:09;8.82;;;1.20;;
54919;SDS011;63804;53.120;8.764;2024-01-16T08:11:42;7.97;;;1.33;;
54919;SDS011;63804;53.120;8.764;2024-01-16T08:14:13;7.70;;;1.15;;
54919;SDS011;63804;53.120;8.764;2024-01-16T08:16:43;6.63;;;1.05;;
54919;SDS011;63804;53.120;8.764;2024-01-16T08:19:14;7.53;;;1.45;;
54919;SDS011;63804;53.120;8.764;2024-01-16T08:21:45;7.47;;;1.50;;
54919;SDS011;63804;53.120;8.764;2024-01-16T08:24:15;10.10;;;1.52;;
54919;SDS011;63804;53.120;8.764;2024-01-16T08:26:46;8.07;;;1.40;;
54919;SDS011;63804;53.120;8.764;2024-01-16T08:29:16;8.35;;;1.60;;
54919;SDS011;63804;53.120;8.764;2024-01-16T08:31:47;8.85;;;1.65;;
54919;SDS011;63804;53.120;8.764;2024-01-16T08:34:17;8.05;;;1.38;;
54919;SDS011;63804;53.120;8.764;2024-01-16T08:36:48;6.45;;;1.60;;
54919;SDS011;63804;53.120;8.764;2024-01-16T08:39:19;9.30;;;1.60;;
54919;SDS011;63804;53.120;8.764;2024-01-16T08:41:50;7.32;;;1.40;;
54919;SDS011;63804;53.120;8.764;2024-01-16T08:44:21;7.03;;;1.92;;
54919;SDS011;63804;53.120;8.764;2024-01-16T08:46:52;9.18;;;1.80;;
54919;SDS011;63804;53.120;8.764;2024-01-16T08:49:22;6.63;;;1.40;;
54919;SDS011;63804;53.120;8.764;2024-01-16T08:51:53;8.30;;;1.88;;
54919;SDS011;63804;53.120;8.764;2024-01-16T08:54:23;4.70;;;1.40;;
54919;SDS011;63804;53.120;8.764;2024-01-16T08:56:55;7.40;;;1.60;;
54919;SDS011;63804;53.120;8.764;2024-01-16T08:59:43;9.45;;;1.65;;
54919;SDS011;63804;53.120;8.764;2024-01-16T09:02:30;7.43;;;1.75;;
54919;SDS011;63804;53.120;8.764;2024-01-16T09:05:17;8.43;;;1.60;;
54919;SDS011;63804;53.120;8.764;2024-01-16T09:08:05;6.82;;;1.50;;
54919;SDS011;63804;53.120;8.764;2024-01-16T09:10:54;10.48;;;2.03;;
54919;SDS011;63804;53.120;8.764;2024-01-16T09:13:43;7.85;;;1.80;;
54919;SDS011;63804;53.120;8.764;2024-01-16T09:16:30;6.85;;;1.60;;
54919;SDS011;63804;53.120;8.764;2024-01-16T09:19:17;10.45;;;2.25;;
54919;SDS011;63804;53.120;8.764;2024-01-16T09:22:04;6.10;;;1.80;;
54919;SDS011;63804;53.120;8.764;2024-01-16T09:24:51;7.90;;;1.73;;
54919;SDS011;63804;53.120;8.764;2024-01-16T09:27:38;6.65;;;1.67;;
54919;SDS011;63804;53.120;8.764;2024-01-16T09:30:26;8.60;;;2.25;;
54919;SDS011;63804;53.120;8.764;2024-01-16T09:33:13;10.20;;;2.33;;
54919;SDS011;63804;53.120;8.764;2024-01-16T09:36:03;5.75;;;1.67;;
54919;SDS011;63804;53.120;8.764;2024-01-16T09:38:52;6.55;;;1.60;;
54919;SDS011;63804;53.120;8.764;2024-01-16T09:41:39;4.15;;;1.63;;
54919;SDS011;63804;53.120;8.764;2024-01-16T09:44:28;9.95;;;1.92;;
54919;SDS011;63804;53.120;8.764;2024-01-16T09:47:16;4.93;;;1.70;;
54919;SDS011;63804;53.120;8.764;2024-01-16T09:50:04;8.95;;;2.20;;
54919;SDS011;63804;53.120;8.764;2024-01-16T09:52:52;6.00;;;1.90;;
54919;SDS011;63804;53.120;8.764;2024-01-16T09:55:42;8.13;;;1.80;;
54919;SDS011;63804;53.120;8.764;2024-01-16T09:58:30;6.55;;;1.92;;
54919;SDS011;63804;53.120;8.764;2024-01-16T10:01:23;6.88;;;1.83;;
54919;SDS011;63804;53.120;8.764;2024-01-16T10:04:15;10.15;;;2.00;;
54919;SDS011;63804;53.120;8.764;2024-01-16T10:07:02;6.88;;;2.05;;
54919;SDS011;63804;53.120;8.764;2024-01-16T10:09:51;10.55;;;1.73;;
54919;SDS011;63804;53.120;8.764;2024-01-16T10:12:41;6.18;;;2.10;;
54919;SDS011;63804;53.120;8.764;2024-01-16T10:15:29;5.43;;;2.17;;
54919;SDS011;63804;53.120;8.764;2024-01-16T10:18:21;6.80;;;2.10;;
54919;SDS011;63804;53.120;8.764;2024-01-16T10:21:22;8.52;;;2.08;;
54919;SDS011;63804;53.120;8.764;2024-01-16T10:23:53;6.15;;;1.92;;
54919;SDS011;63804;53.120;8.764;2024-01-16T10:26:21;6.68;;;2.08;;
54919;SDS011;63804;53.120;8.764;2024-01-16T10:29:07;10.40;;;2.90;;
54919;SDS011;63804;53.120;8.764;2024-01-16T10:31:56;10.65;;;3.13;;
54919;SDS011;63804;53.120;8.764;2024-01-16T10:34:43;10.02;;;2.70;;
54919;SDS011;63804;53.120;8.764;2024-01-16T10:37:40;13.73;;;2.17;;
54919;SDS011;63804;53.120;8.764;2024-01-16T10:40:28;9.05;;;2.25;;
54919;SDS011;63804;53.120;8.764;2024-01-16T10:43:18;7.32;;;1.98;;
54919;SDS011;63804;53.120;8.764;2024-01-16T10:48:59;5.97;;;1.83;;
54919;SDS011;63804;53.120;8.764;2024-01-16T10:51:50;8.15;;;2.17;;
54919;SDS011;63804;53.120;8.764;2024-01-16T10:54:40;8.43;;;2.47;;
54919;SDS011;63804;53.120;8.764;2024-01-16T10:57:28;10.80;;;2.50;;
54919;SDS011;63804;53.120;8.764;2024-01-16T11:00:20;7.35;;;2.55;;
54919;SDS011;63804;53.120;8.764;2024-01-16T11:03:07;7.45;;;2.35;;
54919;SDS011;63804;53.120;8.764;2024-01-16T11:05:45;7.28;;;2.40;;
54919;SDS011;63804;53.120;8.764;2024-01-16T11:08:17;10.48;;;2.80;;
54919;SDS011;63804;53.120;8.764;2024-01-16T11:10:49;6.35;;;2.38;;
54919;SDS011;63804;53.120;8.764;2024-01-16T11:13:20;7.18;;;2.13;;
54919;SDS011;63804;53.120;8.764;2024-01-16T11:15:52;7.93;;;2.67;;
54919;SDS011;63804;53.120;8.764;2024-01-16T11:18:26;5.78;;;1.85;;
54919;SDS011;63804;53.120;8.764;2024-01-16T11:20:57;10.48;;;2.70;;
54919;SDS011;63804;53.120;8.764;2024-01-16T11:23:40;6.80;;;2.10;;
54919;SDS011;63804;53.120;8.764;2024-01-16T11:26:26;6.93;;;2.30;;
54919;SDS011;63804;53.120;8.764;2024-01-16T11:31:57;7.57;;;2.15;;
54919;SDS011;63804;53.120;8.764;2024-01-16T11:37:12;11.27;;;2.47;;
54919;SDS011;63804;53.120;8.764;2024-01-16T11:42:50;7.47;;;2.45;;
54919;SDS011;63804;53.120;8.764;2024-01-16T11:48:10;11.70;;;2.60;;
54919;SDS011;63804;53.120;8.764;2024-01-16T11:50:41;5.57;;;2.17;;
54919;SDS011;63804;53.120;8.764;2024-01-16T12:01:44;5.00;;;2.10;;
54919;SDS011;63804;53.120;8.764;2024-01-16T12:04:15;7.03;;;2.28;;
54919;SDS011;63804;53.120;8.764;2024-01-16T12:06:57;8.30;;;2.55;;
54919;SDS011;63804;53.120;8.764;2024-01-16T12:09:36;7.93;;;2.47;;
54919;SDS011;63804;53.120;8.764;2024-01-16T12:12:07;6.43;;;2.28;;
54919;SDS011;63804;53.120;8.764;2024-01-16T12:14:39;9.05;;;2.67;;
54919;SDS011;63804;53.120;8.764;2024-01-16T12:17:13;10.02;;;2.60;;
54919;SDS011;63804;53.120;8.764;2024-01-16T12:19:44;7.00;;;2.22;;
54919;SDS011;63804;53.120;8.764;2024-01-16T12:22:15;4.28;;;2.15;;
54919;SDS011;63804;53.120;8.764;2024-01-16T12:24:48;10.18;;;2.50;;
54919;SDS011;63804;53.120;8.764;2024-01-16T12:27:19;8.57;;;2.42;;
54919;SDS011;63804;53.120;8.764;2024-01-16T12:29:58;8.80;;;2.55;;
54919;SDS011;63804;53.120;8.764;2024-01-16T12:32:40;14.55;;;2.65;;
54919;SDS011;63804;53.120;8.764;2024-01-16T12:35:11;9.30;;;2.85;;
54919;SDS011;63804;53.120;8.764;2024-01-16T12:37:42;9.25;;;2.92;;
54919;SDS011;63804;53.120;8.764;2024-01-16T12:40:12;7.90;;;2.60;;
54919;SDS011;63804;53.120;8.764;2024-01-16T12:42:45;6.90;;;2.50;;
54919;SDS011;63804;53.120;8.764;2024-01-16T12:45:16;6.15;;;2.47;;
54919;SDS011;63804;53.120;8.764;2024-01-16T12:47:52;6.50;;;2.43;;
54919;SDS011;63804;53.120;8.764;2024-01-16T12:50:27;6.68;;;2.30;;
54919;SDS011;63804;53.120;8.764;2024-01-16T12:53:06;6.05;;;2.70;;
54919;SDS011;63804;53.120;8.764;2024-01-16T12:55:41;9.82;;;2.40;;
54919;SDS011;63804;53.120;8.764;2024-01-16T12:58:12;13.38;;;2.97;;
54919;SDS011;63804;53.120;8.764;2024-01-16T13:00:45;8.70;;;2.83;;
54919;SDS011;63804;53.120;8.764;2024-01-16T13:03:16;5.75;;;2.70;;
54919;SDS011;63804;53.120;8.764;2024-01-16T13:05:56;5.70;;;2.45;;
54919;SDS011;63804;53.120;8.764;2024-01-16T13:08:31;5.40;;;2.53;;
54919;SDS011;63804;53.120;8.764;2024-01-16T13:11:02;9.18;;;3.17;;
54919;SDS011;63804;53.120;8.764;2024-01-16T13:13:39;9.57;;;3.72;;
54919;SDS011;63804;53.120;8.764;2024-01-16T13:16:09;7.72;;;3.90;;
54919;SDS011;63804;53.120;8.764;2024-01-16T13:18:41;10.38;;;4.25;;
54919;SDS011;63804;53.120;8.764;2024-01-16T13:21:12;10.40;;;4.95;;
54919;SDS011;63804;53.120;8.764;2024-01-16T13:23:43;11.07;;;5.72;;
54919;SDS011;63804;53.120;8.764;2024-01-16T13:26:13;11.68;;;5.78;;
54919;SDS011;63804;53.120;8.764;2024-01-16T13:28:44;11.73;;;6.43;;
54919;SDS011;63804;53.120;8.764;2024-01-16T13:31:17;12.85;;;5.68;;
54919;SDS011;63804;53.120;8.764;2024-01-16T13:33:47;10.07;;;5.50;;
54919;SDS011;63804;53.120;8.764;2024-01-16T13:36:18;12.30;;;5.88;;
54919;SDS011;63804;53.120;8.764;2024-01-16T13:39:12;13.90;;;5.93;;
54919;SDS011;63804;53.120;8.764;2024-01-16T13:41:45;9.73;;;5.50;;
54919;SDS011;63804;53.120;8.764;2024-01-16T13:44:17;11.57;;;5.32;;
54919;SDS011;63804;53.120;8.764;2024-01-16T13:46:48;11.35;;;5.70;;
54919;SDS011;63804;53.120;8.764;2024-01-16T13:49:39;12.15;;;4.60;;
54919;SDS011;63804;53.120;8.764;2024-01-16T13:52:11;11.32;;;4.85;;
54919;SDS011;63804;53.120;8.764;2024-01-16T13:54:42;10.45;;;5.93;;
54919;SDS011;63804;53.120;8.764;2024-01-16T13:57:13;11.52;;;5.15;;
54919;SDS011;63804;53.120;8.764;2024-01-16T13:59:44;9.63;;;4.72;;
54919;SDS011;63804;53.120;8.764;2024-01-16T14:02:14;9.13;;;4.63;;
54919;SDS011;63804;53.120;8.764;2024-01-16T14:04:45;10.80;;;4.32;;
54919;SDS011;63804;53.120;8.764;2024-01-16T14:07:16;9.98;;;4.40;;
54919;SDS011;63804;53.120;8.764;2024-01-16T14:09:46;8.35;;;4.10;;
54919;SDS011;63804;53.120;8.764;2024-01-16T14:12:17;8.63;;;3.70;;
54919;SDS011;63804;53.120;8.764;2024-01-16T14:14:48;7.60;;;3.67;;
54919;SDS011;63804;53.120;8.764;2024-01-16T14:17:19;8.25;;;4.15;;
54919;SDS011;63804;53.120;8.764;2024-01-16T14:19:50;10.48;;;3.58;;
54919;SDS011;63804;53.120;8.764;2024-01-16T14:22:20;6.53;;;3.20;;
54919;SDS011;63804;53.120;8.764;2024-01-16T14:24:50;8.50;;;3.30;;
54919;SDS011;63804;53.120;8.764;2024-01-16T14:27:21;7.47;;;3.28;;
54919;SDS011;63804;53.120;8.764;2024-01-16T14:29:53;9.95;;;3.45;;
54919;SDS011;63804;53.120;8.764;2024-01-16T14:32:24;7.45;;;3.60;;
54919;SDS011;63804;53.120;8.764;2024-01-16T14:34:55;7.68;;;3.08;;
54919;SDS011;63804;53.120;8.764;2024-01-16T14:37:25;10.35;;;3.42;;
54919;SDS011;63804;53.120;8.764;2024-01-16T14:39:56;7.60;;;2.97;;
54919;SDS011;63804;53.120;8.764;2024-01-16T14:42:28;7.95;;;3.08;;
54919;SDS011;63804;53.120;8.764;2024-01-16T14:44:58;8.65;;;3.25;;
54919;SDS011;63804;53.120;8.764;2024-01-16T14:47:34;8.07;;;3.13;;
54919;SDS011;63804;53.120;8.764;2024-01-16T14:50:08;6.18;;;2.88;;
54919;SDS011;63804;53.120;8.764;2024-01-16T14:52:42;7.45;;;3.00;;
54919;SDS011;63804;53.120;8.764;2024-01-16T14:55:13;10.10;;;3.42;;
54919;SDS011;63804;53.120;8.764;2024-01-16T14:57:44;8.00;;;3.85;;
54919;SDS011;63804;53.120;8.764;2024-01-16T15:00:17;10.65;;;4.13;;
54919;SDS011;63804;53.120;8.764;2024-01-16T15:02:50;9.38;;;3.85;;
54919;SDS011;63804;53.120;8.764;2024-01-16T15:05:21;11.10;;;4.13;;
54919;SDS011;63804;53.120;8.764;2024-01-16T15:07:53;8.82;;;3.85;;
54919;SDS011;63804;53.120;8.764;2024-01-16T15:10:23;8.43;;;4.05;;
54919;SDS011;63804;53.120;8.764;2024-01-16T15:12:54;9.82;;;4.20;;
54919;SDS011;63804;53.120;8.764;2024-01-16T15:15:25;9.93;;;4.10;;
54919;SDS011;63804;53.120;8.764;2024-01-16T15:17:55;8.88;;;4.00;;
54919;SDS011;63804;53.120;8.764;2024-01-16T15:20:26;7.85;;;3.70;;
54919;SDS011;63804;53.120;8.764;2024-01-16T15:22:56;11.07;;;4.10;;
54919;SDS011;63804;53.120;8.764;2024-01-16T15:25:28;10.00;;;4.18;;
54919;SDS011;63804;53.120;8.764;2024-01-16T15:28:00;9.32;;;3.63;;
54919;SDS011;63804;53.120;8.764;2024-01-16T15:30:36;12.65;;;4.03;;
54919;SDS011;63804;53.120;8.764;2024-01-16T15:33:07;11.60;;;4.03;;
54919;SDS011;63804;53.120;8.764;2024-01-16T15:35:40;11.95;;;4.90;;
54919;SDS011;63804;53.120;8.764;2024-01-16T15:38:10;9.73;;;4.60;;
54919;SDS011;63804;53.120;8.764;2024-01-16T15:40:40;11.43;;;4.63;;
54919;SDS011;63804;53.120;8.764;2024-01-16T15:43:11;12.60;;;5.32;;
54919;SDS011;63804;53.120;8.764;2024-01-16T15:45:41;10.95;;;4.75;;
54919;SDS011;63804;53.120;8.764;2024-01-16T15:48:12;11.00;;;5.20;;